Time;durP1;ratioP1;P1;durP2;ratioP2;P2;SDS_P1;SDS_P2;PMS_P1;PMS_P2;Temp;Humidity;BMP_temperature;BMP_pressure;BME280_temperature;BME280_humidity;BME280_pressure;Samples;Min_cycle;Max_cycle;Signal;HPM_P1;HPM_P2
2020/09/09 00:00:56;;;;;;;0.8;0.5;;;;;;;;;;;;;
2020/09/09 00:03:22;;;;;;;0.9;0.8;;;;;;;;;;;;;
2020/09/09 00:05:47;;;;;;;1.3;0.7;;;;;;;;;;;;;
2020/09/09 00:08:14;;;;;;;1;0.5;;;;;;;;;;;;;
2020/09/09 00:10:39;;;;;;;1.4;0.8;;;;;;;;;;;;;
2020/09/09 00:13:04;;;;;;;0.9;0.6;;;;;;;;;;;;;
2020/09/09 00:15:29;;;;;;;1.8;0.9;;;;;;;;;;;;;
2020/09/09 00:17:55;;;;;;;0.5;0.4;;;;;;;;;;;;;
2020/09/09 00:20:21;;;;;;;0.6;0.4;;;;;;;;;;;;;
2020/09/09 00:22:47;;;;;;;1.2;0.7;;;;;;;;;;;;;
2020/09/09 00:25:12;;;;;;;0.8;0.6;;;;;;;;;;;;;
2020/09/09 00:27:38;;;;;;;1.6;0.8;;;;;;;;;;;;;
2020/09/09 00:30:03;;;;;;;0.6;0.4;;;;;;;;;;;;;
2020/09/09 00:32:28;;;;;;;1;0.5;;;;;;;;;;;;;
2020/09/09 00:34:53;;;;;;;1.1;0.6;;;;;;;;;;;;;
2020/09/09 00:37:18;;;;;;;6.5;1.1;;;;;;;;;;;;;
2020/09/09 00:39:43;;;;;;;1.5;0.6;;;;;;;;;;;;;
2020/09/09 00:42:08;;;;;;;0.7;0.6;;;;;;;;;;;;;
2020/09/09 00:44:34;;;;;;;1.1;0.6;;;;;;;;;;;;;
2020/09/09 00:46:59;;;;;;;2.2;1;;;;;;;;;;;;;
2020/09/09 00:49:24;;;;;;;1.2;0.5;;;;;;;;;;;;;
2020/09/09 00:51:49;;;;;;;1.1;0.8;;;;;;;;;;;;;
2020/09/09 00:54:14;;;;;;;2.6;0.8;;;;;;;;;;;;;
2020/09/09 00:56:39;;;;;;;2;0.9;;;;;;;;;;;;;
2020/09/09 00:59:04;;;;;;;0.6;0.6;;;;;;;;;;;;;
2020/09/09 01:01:31;;;;;;;1.7;0.9;;;;;;;;;;;;;
2020/09/09 01:03:56;;;;;;;1;0.6;;;;;;;;;;;;;
2020/09/09 01:06:22;;;;;;;1.6;1.1;;;;;;;;;;;;;
2020/09/09 01:08:47;;;;;;;1.5;0.7;;;;;;;;;;;;;
2020/09/09 01:11:12;;;;;;;0.8;0.8;;;;;;;;;;;;;
2020/09/09 01:13:37;;;;;;;2.6;1;;;;;;;;;;;;;
2020/09/09 01:16:07;;;;;;;1.1;0.9;;;;;;;;;;;;;
2020/09/09 01:18:32;;;;;;;0.8;0.7;;;;;;;;;;;;;
2020/09/09 01:20:58;;;;;;;0.7;0.5;;;;;;;;;;;;;
2020/09/09 01:23:22;;;;;;;1.6;0.7;;;;;;;;;;;;;
2020/09/09 01:25:48;;;;;;;1.6;1;;;;;;;;;;;;;
2020/09/09 01:28:13;;;;;;;0.9;0.7;;;;;;;;;;;;;
2020/09/09 01:30:38;;;;;;;1.5;0.8;;;;;;;;;;;;;
2020/09/09 01:33:03;;;;;;;0.9;0.5;;;;;;;;;;;;;
2020/09/09 01:35:30;;;;;;;1;0.7;;;;;;;;;;;;;
2020/09/09 01:37:55;;;;;;;1.3;0.8;;;;;;;;;;;;;
2020/09/09 01:40:21;;;;;;;2.9;0.7;;;;;;;;;;;;;
2020/09/09 01:42:46;;;;;;;1.4;0.9;;;;;;;;;;;;;
2020/09/09 01:45:14;;;;;;;1;0.9;;;;;;;;;;;;;
2020/09/09 01:47:39;;;;;;;1;0.9;;;;;;;;;;;;;
2020/09/09 01:50:04;;;;;;;1.2;0.7;;;;;;;;;;;;;
2020/09/09 01:52:29;;;;;;;0.4;0.4;;;;;;;;;;;;;
2020/09/09 01:54:55;;;;;;;2.1;0.8;;;;;;;;;;;;;
2020/09/09 01:57:20;;;;;;;3.5;1;;;;;;;;;;;;;
2020/09/09 01:59:46;;;;;;;2.5;0.8;;;;;;;;;;;;;
2020/09/09 02:02:11;;;;;;;0.8;0.6;;;;;;;;;;;;;
2020/09/09 02:04:38;;;;;;;2.9;0.7;;;;;;;;;;;;;
2020/09/09 02:07:03;;;;;;;0.9;0.7;;;;;;;;;;;;;
2020/09/09 02:09:29;;;;;;;1.7;1.1;;;;;;;;;;;;;
2020/09/09 02:11:54;;;;;;;0.9;0.6;;;;;;;;;;;;;
2020/09/09 02:14:19;;;;;;;0.8;0.7;;;;;;;;;;;;;
2020/09/09 02:16:44;;;;;;;3.2;1.1;;;;;;;;;;;;;
2020/09/09 02:19:12;;;;;;;9.4;1.4;;;;;;;;;;;;;
2020/09/09 02:21:37;;;;;;;0.9;0.5;;;;;;;;;;;;;
2020/09/09 02:24:03;;;;;;;1.8;0.7;;;;;;;;;;;;;
2020/09/09 02:26:28;;;;;;;1.1;0.8;;;;;;;;;;;;;
2020/09/09 02:28:54;;;;;;;1;0.6;;;;;;;;;;;;;
2020/09/09 02:31:19;;;;;;;0.5;0.4;;;;;;;;;;;;;
2020/09/09 02:33:45;;;;;;;2.8;0.7;;;;;;;;;;;;;
2020/09/09 02:36:10;;;;;;;0.6;0.6;;;;;;;;;;;;;
2020/09/09 02:38:36;;;;;;;1.5;1;;;;;;;;;;;;;
2020/09/09 02:41:01;;;;;;;3.7;1.1;;;;;;;;;;;;;
2020/09/09 02:43:28;;;;;;;1.4;1;;;;;;;;;;;;;
2020/09/09 02:45:53;;;;;;;1;0.8;;;;;;;;;;;;;
2020/09/09 02:48:19;;;;;;;0.5;0.4;;;;;;;;;;;;;
2020/09/09 02:50:44;;;;;;;0.6;0.5;;;;;;;;;;;;;
2020/09/09 02:53:10;;;;;;;5.2;0.8;;;;;;;;;;;;;
2020/09/09 02:55:35;;;;;;;0.6;0.6;;;;;;;;;;;;;
2020/09/09 02:58:02;;;;;;;0.5;0.5;;;;;;;;;;;;;
2020/09/09 03:00:27;;;;;;;1.1;0.8;;;;;;;;;;;;;
2020/09/09 03:02:53;;;;;;;0.7;0.6;;;;;;;;;;;;;
2020/09/09 03:05:18;;;;;;;0.8;0.7;;;;;;;;;;;;;
2020/09/09 03:07:45;;;;;;;0.8;0.6;;;;;;;;;;;;;
2020/09/09 03:10:10;;;;;;;0.8;0.6;;;;;;;;;;;;;
2020/09/09 03:12:36;;;;;;;0.7;0.6;;;;;;;;;;;;;
2020/09/09 03:15:01;;;;;;;0.9;0.6;;;;;;;;;;;;;
2020/09/09 03:20:03;;;;;;;3.8;0.8;;;;;;;13.23;91.8418;946.1216;;;;
2020/09/09 03:22:31;;;;;;;0.7;0.6;;;;;;;13.4;90.91113;946.1458;;;;
2020/09/09 03:24:56;;;;;;;0.6;0.4;;;;;;;13.48;90.43555;946.1871;;;;
2020/09/09 03:27:29;;;;;;;0.5;0.4;;;;;;;13.51;89.87793;946.0963;;;;
2020/09/09 03:29:58;;;;;;;1.5;0.9;;;;;;;13.42;90.03125;946.1641;;;;
2020/09/09 03:32:24;;;;;;;0.7;0.6;;;;;;;13.2;90.27148;946.1281;;;;
2020/09/09 03:34:53;;;;;;;0.5;0.5;;;;;;;13.12;90.16504;946.1372;;;;
2020/09/09 03:37:18;;;;;;;2.7;0.7;;;;;;;13.08;90.29395;946.183;;;;
2020/09/09 03:39:43;;;;;;;1.1;0.7;;;;;;;12.98;92.61523;946.0759;;;;
2020/09/09 03:42:08;;;;;;;0.8;0.6;;;;;;;13.02;91.57813;946.0799;;;;
2020/09/09 03:44:37;;;;;;;0.9;0.6;;;;;;;13;90.37988;946.0274;;;;
2020/09/09 03:47:02;;;;;;;1.3;1.2;;;;;;;12.9;90.40527;946.099;;;;
2020/09/09 03:49:27;;;;;;;0.9;0.9;;;;;;;12.71;91.70801;946.1049;;;;
2020/09/09 03:51:56;;;;;;;0.5;0.5;;;;;;;12.61;92.54785;946.1144;;;;
2020/09/09 03:54:21;;;;;;;4.1;1.8;;;;;;;12.69;92.20996;946.079;;;;
2020/09/09 03:56:46;;;;;;;2.2;1.1;;;;;;;12.76;92.44238;946.0792;;;;
2020/09/09 03:59:12;;;;;;;1.3;0.7;;;;;;;12.9;91.4502;946.0719;;;;
2020/09/09 04:02:28;;;;;;;1.9;0.8;;;;;;;12.94;90.73438;946.113;;;;
2020/09/09 04:04:53;;;;;;;1.8;1.1;;;;;;;13.02;90.32813;946.0736;;;;
2020/09/09 04:07:29;;;;;;;1.3;0.8;;;;;;;12.91;90.50098;946.0496;;;;
2020/09/09 04:09:57;;;;;;;3.7;0.7;;;;;;;12.86;90.86816;946.0584;;;;
2020/09/09 04:12:26;;;;;;;1.6;0.9;;;;;;;12.86;91.38477;945.9578;;;;
2020/09/09 04:14:52;;;;;;;1.4;0.9;;;;;;;12.97;90.51172;946.0383;;;;
2020/09/09 04:17:17;;;;;;;1.6;0.7;;;;;;;13.02;89.6377;945.9592;;;;
2020/09/09 04:19:45;;;;;;;1.3;0.8;;;;;;;13;89.63379;946.017;;;;
2020/09/09 04:22:10;;;;;;;1.6;1;;;;;;;13.02;88.98438;946.0623;;;;
2020/09/09 04:24:35;;;;;;;2.4;1.1;;;;;;;12.9;88.75195;946.0742;;;;
2020/09/09 04:27:01;;;;;;;1.2;0.8;;;;;;;12.76;89.87207;946.0137;;;;
2020/09/09 04:29:30;;;;;;;0.6;0.5;;;;;;;12.79;89.62695;946.0357;;;;
2020/09/09 04:31:57;;;;;;;1.3;1.1;;;;;;;12.83;89.27637;945.9941;;;;
2020/09/09 04:34:22;;;;;;;0.9;0.8;;;;;;;12.95;88.79785;945.9597;;;;
2020/09/09 04:36:51;;;;;;;0.9;0.8;;;;;;;13.07;88.24707;945.927;;;;
2020/09/09 04:39:16;;;;;;;1.3;1.2;;;;;;;13.23;87.29199;945.948;;;;
2020/09/09 04:41:48;;;;;;;2;1;;;;;;;12.99;88.04688;945.913;;;;
2020/09/09 04:44:13;;;;;;;1.6;0.6;;;;;;;12.9;88.6377;946.0286;;;;
2020/09/09 04:46:43;;;;;;;6;1.4;;;;;;;12.84;88.66992;946.0078;;;;
2020/09/09 04:49:14;;;;;;;2.9;0.9;;;;;;;12.75;89.20313;945.9824;;;;
2020/09/09 04:51:39;;;;;;;2.2;1.2;;;;;;;12.74;89.70801;946.0694;;;;
2020/09/09 04:54:07;;;;;;;0.9;0.7;;;;;;;12.77;89.26563;945.9842;;;;
2020/09/09 04:56:33;;;;;;;1;0.8;;;;;;;12.79;88.88086;945.9781;;;;
2020/09/09 04:59:01;;;;;;;1.2;0.8;;;;;;;12.76;88.91797;946.048;;;;
2020/09/09 05:01:26;;;;;;;1.3;0.7;;;;;;;12.76;89.04395;946.0089;;;;
2020/09/09 05:03:53;;;;;;;3.1;0.7;;;;;;;12.8;88.92676;945.9735;;;;
2020/09/09 05:06:20;;;;;;;1.5;1;;;;;;;12.65;90.10059;946.0689;;;;
2020/09/09 05:08:44;;;;;;;5.9;1.2;;;;;;;12.62;90.62207;945.9727;;;;
2020/09/09 05:11:10;;;;;;;3;1.4;;;;;;;12.61;90.94141;946.0864;;;;
2020/09/09 05:13:36;;;;;;;2.1;1.3;;;;;;;12.63;91.2207;946.0718;;;;
2020/09/09 05:16:01;;;;;;;2.6;1.1;;;;;;;12.68;90.37207;946.0725;;;;
2020/09/09 05:18:30;;;;;;;15.1;1.6;;;;;;;12.77;89.70215;946.0339;;;;
2020/09/09 05:20:55;;;;;;;4.1;1.5;;;;;;;12.72;89.73633;946.097;;;;
2020/09/09 05:23:24;;;;;;;3.2;1;;;;;;;12.8;89.27148;945.9942;;;;
2020/09/09 05:25:49;;;;;;;2.6;1.3;;;;;;;12.87;88.94141;946.0786;;;;
2020/09/09 05:28:14;;;;;;;2.8;1;;;;;;;12.84;89.31348;946.0486;;;;
2020/09/09 05:30:39;;;;;;;8.8;1.6;;;;;;;12.84;89.17578;946.015;;;;
2020/09/09 05:33:04;;;;;;;1.7;0.8;;;;;;;12.9;88.88965;946.1061;;;;
2020/09/09 05:35:36;;;;;;;2.5;1.3;;;;;;;12.91;89.58203;946.0815;;;;
2020/09/09 05:38:01;;;;;;;10.5;1.1;;;;;;;12.92;90.6748;946.06;;;;
2020/09/09 05:40:33;;;;;;;1.5;0.9;;;;;;;13.01;90.96777;946.038;;;;
2020/09/09 05:42:57;;;;;;;3.1;1.2;;;;;;;13.17;90.74902;945.9858;;;;
2020/09/09 05:45:23;;;;;;;1.4;1;;;;;;;13.38;90.27441;946.0976;;;;
2020/09/09 05:47:49;;;;;;;0.9;0.8;;;;;;;13.5;89.93359;946.0441;;;;
2020/09/09 05:50:14;;;;;;;2.8;1.2;;;;;;;13.65;89.43457;946.0435;;;;
2020/09/09 05:52:39;;;;;;;1.8;1.2;;;;;;;13.83;88.52734;946.0383;;;;
2020/09/09 05:55:04;;;;;;;1.5;1;;;;;;;13.94;88.67676;945.9889;;;;
2020/09/09 05:57:30;;;;;;;3.8;1;;;;;;;14.11;88.37793;946.0114;;;;
2020/09/09 05:59:55;;;;;;;2.3;1.4;;;;;;;14.28;88.20508;945.9666;;;;
2020/09/09 06:02:20;;;;;;;1.6;1;;;;;;;14.56;87.88086;945.9476;;;;
2020/09/09 06:04:46;;;;;;;1.4;1;;;;;;;15.06;85.37598;945.9608;;;;
2020/09/09 06:07:11;;;;;;;1.7;1.2;;;;;;;15.77;82.06934;945.9208;;;;
2020/09/09 06:09:38;;;;;;;3.6;1.6;;;;;;;16.61;78.41602;945.8248;;;;
2020/09/09 06:12:06;;;;;;;4.4;1.1;;;;;;;17.34;76.22949;945.8152;;;;
2020/09/09 06:14:35;;;;;;;2.2;1.2;;;;;;;18.51;70.95605;945.7933;;;;
2020/09/09 06:16:59;;;;;;;1;0.7;;;;;;;19.5;66.63965;945.7681;;;;
2020/09/09 06:19:27;;;;;;;1.1;0.7;;;;;;;20.49;62.7832;945.7603;;;;
2020/09/09 06:21:52;;;;;;;1;0.8;;;;;;;20.76;61.42871;945.7349;;;;
2020/09/09 06:24:17;;;;;;;1.2;0.7;;;;;;;20.43;62.61035;945.7508;;;;
2020/09/09 06:26:42;;;;;;;2;0.7;;;;;;;20.7;61.7373;945.7172;;;;
2020/09/09 06:29:09;;;;;;;1.9;1.1;;;;;;;20.7;62.18164;945.6525;;;;
2020/09/09 06:31:42;;;;;;;0.6;0.5;;;;;;;21.13;60.74316;945.6589;;;;
2020/09/09 06:34:09;;;;;;;2.1;0.6;;;;;;;21.36;60.63574;945.6322;;;;
2020/09/09 06:36:34;;;;;;;0.8;0.6;;;;;;;21.51;60.03613;945.6002;;;;
2020/09/09 06:38:59;;;;;;;2.5;1.1;;;;;;;20.91;62.1748;945.5705;;;;
2020/09/09 06:41:24;;;;;;;1.4;0.4;;;;;;;20.89;61.8457;945.5968;;;;
2020/09/09 06:43:50;;;;;;;0.8;0.7;;;;;;;21.02;62.00488;945.6066;;;;
2020/09/09 06:46:15;;;;;;;2.6;0.7;;;;;;;20.88;62.62598;945.58;;;;
2020/09/09 06:48:43;;;;;;;1.4;0.7;;;;;;;21.04;64.04102;945.4971;;;;
2020/09/09 06:51:08;;;;;;;1.3;0.8;;;;;;;21.4;62.13867;945.5602;;;;
2020/09/09 06:53:35;;;;;;;3.3;1.3;;;;;;;21.18;61.44141;945.559;;;;
2020/09/09 06:56:01;;;;;;;2.5;1.4;;;;;;;20.51;65.15625;945.5479;;;;
2020/09/09 06:58:26;;;;;;;2.2;1.1;;;;;;;20.71;64.57813;945.5002;;;;
2020/09/09 07:00:55;;;;;;;1.2;1;;;;;;;20.19;65.69238;945.5661;;;;
2020/09/09 07:03:20;;;;;;;1.2;0.6;;;;;;;19.94;68.00098;945.543;;;;
2020/09/09 07:05:46;;;;;;;1.5;0.7;;;;;;;20.16;67.90625;945.5212;;;;
2020/09/09 07:08:10;;;;;;;0.7;0.4;;;;;;;20.8;66.37988;945.5349;;;;
2020/09/09 07:10:51;;;;;;;0.5;0.4;;;;;;;21.42;64.21289;945.4763;;;;
2020/09/09 07:13:18;;;;;;;2.9;0.6;;;;;;;21.58;60.70117;945.4009;;;;
2020/09/09 07:15:43;;;;;;;1;0.6;;;;;;;22.12;60.79785;945.4709;;;;
2020/09/09 07:18:11;;;;;;;4;0.9;;;;;;;22.8;58.77832;945.4939;;;;
2020/09/09 07:20:39;;;;;;;0.8;0.5;;;;;;;22.69;56.74512;945.4934;;;;
2020/09/09 07:23:06;;;;;;;1.1;0.7;;;;;;;23.22;54.61426;945.468;;;;
2020/09/09 07:25:31;;;;;;;0.7;0.3;;;;;;;24.12;53.78125;945.3917;;;;
2020/09/09 07:27:56;;;;;;;0.4;0.4;;;;;;;24.36;52.71484;945.3918;;;;
2020/09/09 07:30:23;;;;;;;0.7;0.5;;;;;;;24.41;49.8457;945.3943;;;;
2020/09/09 07:32:48;;;;;;;0.5;0.4;;;;;;;24.76;47.89258;945.4394;;;;
2020/09/09 07:35:15;;;;;;;0.8;0.7;;;;;;;25.86;46.66211;945.3865;;;;
2020/09/09 07:37:40;;;;;;;0.4;0.3;;;;;;;25.93;47.34375;945.3773;;;;
2020/09/09 07:40:07;;;;;;;0.4;0.4;;;;;;;26.83;45.35352;945.3396;;;;
2020/09/09 07:42:32;;;;;;;0.5;0.4;;;;;;;28.1;42.3457;945.3038;;;;
2020/09/09 07:44:57;;;;;;;0.3;0.3;;;;;;;28.74;41.69238;945.3245;;;;
2020/09/09 07:47:24;;;;;;;0.8;0.5;;;;;;;29.9;39.85449;945.2446;;;;
2020/09/09 07:49:48;;;;;;;0.3;0.3;;;;;;;30.99;36.61426;945.2918;;;;
2020/09/09 07:52:14;;;;;;;0.7;0.5;;;;;;;31.86;35.41504;945.2395;;;;
2020/09/09 07:54:39;;;;;;;0.6;0.5;;;;;;;32.25;34.47363;945.2023;;;;
2020/09/09 07:57:04;;;;;;;0.3;0.3;;;;;;;32.88;32.78027;945.1862;;;;
2020/09/09 07:59:29;;;;;;;0.4;0.4;;;;;;;34.26;32.66309;945.2037;;;;
2020/09/09 08:01:54;;;;;;;1.2;0.3;;;;;;;34.83;29.95508;945.2357;;;;
2020/09/09 08:04:20;;;;;;;1;0.5;;;;;;;33.92;30.49609;945.1433;;;;
2020/09/09 08:06:45;;;;;;;0.7;0.5;;;;;;;34.63;30.54395;945.0944;;;;
2020/09/09 08:09:12;;;;;;;1.6;0.7;;;;;;;36.29;28.24707;945.0958;;;;
2020/09/09 08:11:37;;;;;;;0.6;0.4;;;;;;;35.85;27.41016;945.0692;;;;
2020/09/09 08:14:02;;;;;;;1.7;0.6;;;;;;;35.05;28.84668;945.0661;;;;
2020/09/09 08:16:27;;;;;;;0.6;0.4;;;;;;;35.72;29.11816;945.0383;;;;
2020/09/09 08:18:53;;;;;;;0.4;0.4;;;;;;;33.07;35.53223;945.0438;;;;
2020/09/09 08:21:19;;;;;;;1.3;0.6;;;;;;;33.9;32.81836;945.0508;;;;
2020/09/09 08:23:45;;;;;;;0.5;0.4;;;;;;;33.42;34.75488;945.0496;;;;
2020/09/09 08:26:09;;;;;;;3.6;0.3;;;;;;;33.88;32.58789;945.0004;;;;
2020/09/09 08:28:36;;;;;;;0.8;0.4;;;;;;;35.52;30.28906;945.0813;;;;
2020/09/09 08:31:05;;;;;;;1.4;0.7;;;;;;;36.07;29.43066;945.0345;;;;
2020/09/09 08:33:30;;;;;;;0.5;0.5;;;;;;;35.46;30.11719;945.0569;;;;
2020/09/09 08:35:57;;;;;;;0.8;0.3;;;;;;;34.74;31.55176;944.9777;;;;
2020/09/09 08:38:22;;;;;;;1.5;0.5;;;;;;;35.63;29.87402;944.9797;;;;
2020/09/09 08:40:52;;;;;;;0.4;0.4;;;;;;;35.2;31.35449;944.9416;;;;
2020/09/09 08:43:16;;;;;;;0.7;0.4;;;;;;;32.83;36.12598;944.9454;;;;
2020/09/09 08:45:43;;;;;;;1;0.5;;;;;;;32.34;38.8584;944.8976;;;;
2020/09/09 08:48:08;;;;;;;0.3;0.3;;;;;;;30.99;40.45215;944.9328;;;;
2020/09/09 08:50:35;;;;;;;0.9;0.5;;;;;;;31.68;37.81934;944.9097;;;;
2020/09/09 08:53:00;;;;;;;0.6;0.3;;;;;;;32.33;36.05078;944.9105;;;;
2020/09/09 08:55:25;;;;;;;0.5;0.4;;;;;;;31.4;38.51367;944.8925;;;;
2020/09/09 08:57:50;;;;;;;0.7;0.5;;;;;;;30.61;40.14355;944.9093;;;;
2020/09/09 09:00:15;;;;;;;5.1;0.5;;;;;;;30.9;39.95508;944.855;;;;
2020/09/09 09:02:46;;;;;;;3.1;0.6;;;;;;;30.26;41.21191;944.8655;;;;
2020/09/09 09:05:12;;;;;;;0.6;0.6;;;;;;;29.17;42.64746;944.8148;;;;
2020/09/09 09:07:37;;;;;;;1;0.6;;;;;;;28.46;45.68555;944.83;;;;
2020/09/09 09:10:04;;;;;;;0.6;0.5;;;;;;;28.34;46.33789;944.7662;;;;
2020/09/09 09:12:29;;;;;;;1;0.5;;;;;;;27.86;47.14355;944.7711;;;;
2020/09/09 09:14:54;;;;;;;0.6;0.4;;;;;;;27.5;46.9043;944.7457;;;;
2020/09/09 09:17:20;;;;;;;2.2;0.3;;;;;;;27.25;49.08398;944.7911;;;;
2020/09/09 09:19:46;;;;;;;0.4;0.3;;;;;;;27.02;48.01465;944.7386;;;;
2020/09/09 09:22:11;;;;;;;0.5;0.4;;;;;;;27.69;48.4668;944.7299;;;;
2020/09/09 09:24:38;;;;;;;0.4;0.4;;;;;;;27.14;47.4834;944.74;;;;
2020/09/09 09:27:03;;;;;;;0.3;0.3;;;;;;;27.4;49.50293;944.6909;;;;
2020/09/09 09:29:30;;;;;;;0.6;0.3;;;;;;;27.83;48.8623;944.7178;;;;
2020/09/09 09:31:55;;;;;;;0.4;0.4;;;;;;;27.18;48.76855;944.7307;;;;
2020/09/09 09:34:24;;;;;;;0.4;0.4;;;;;;;27.61;48.81348;944.6646;;;;
2020/09/09 09:36:50;;;;;;;0.7;0.4;;;;;;;27.93;47.36523;944.6984;;;;
2020/09/09 09:39:16;;;;;;;0.5;0.3;;;;;;;27.89;47.22949;944.6104;;;;
2020/09/09 09:41:41;;;;;;;0.6;0.4;;;;;;;28.21;45.04102;944.6239;;;;
2020/09/09 09:44:06;;;;;;;1.1;0.3;;;;;;;29.38;41.46484;944.6535;;;;
2020/09/09 09:46:34;;;;;;;0.4;0.3;;;;;;;28.7;43.45996;944.5588;;;;
2020/09/09 09:48:59;;;;;;;0.5;0.4;;;;;;;29.04;44.19531;944.6108;;;;
2020/09/09 09:51:25;;;;;;;0.5;0.4;;;;;;;28.82;43.36426;944.5558;;;;
2020/09/09 09:53:50;;;;;;;1.5;0.4;;;;;;;28.19;45.97754;944.568;;;;
2020/09/09 09:56:15;;;;;;;0.8;0.4;;;;;;;28.69;45.67285;944.5137;;;;
2020/09/09 09:58:42;;;;;;;0.5;0.3;;;;;;;29.42;43.93555;944.4478;;;;
2020/09/09 10:01:07;;;;;;;0.7;0.5;;;;;;;29.85;44;944.4705;;;;
2020/09/09 10:03:34;;;;;;;1;0.3;;;;;;;30.11;42.97559;944.4794;;;;
2020/09/09 10:05:59;;;;;;;0.4;0.2;;;;;;;30.31;42.19336;944.4719;;;;
2020/09/09 10:08:26;;;;;;;0.8;0.4;;;;;;;30.46;42.04199;944.478;;;;
2020/09/09 10:10:57;;;;;;;0.3;0.3;;;;;;;30.44;41.61035;944.4406;;;;
2020/09/09 10:13:23;;;;;;;0.5;0.4;;;;;;;30.57;42.93555;944.395;;;;
2020/09/09 10:15:49;;;;;;;0.6;0.5;;;;;;;30.51;41.34082;944.346;;;;
2020/09/09 10:18:16;;;;;;;0.3;0.2;;;;;;;30.66;41.60645;944.3705;;;;
2020/09/09 10:20:41;;;;;;;0.6;0.4;;;;;;;30.99;42.01855;944.344;;;;
2020/09/09 10:23:06;;;;;;;0.3;0.2;;;;;;;30.97;41.68164;944.3287;;;;
2020/09/09 10:25:41;;;;;;;0.7;0.4;;;;;;;31.45;40.78027;944.3552;;;;
2020/09/09 10:28:07;;;;;;;0.5;0.4;;;;;;;31.44;40.30176;944.3558;;;;
2020/09/09 10:30:32;;;;;;;0.5;0.4;;;;;;;31.8;39.88965;944.2842;;;;
2020/09/09 10:33:01;;;;;;;0.3;0.2;;;;;;;31.42;41.90332;944.2419;;;;
2020/09/09 10:35:28;;;;;;;1.3;0.5;;;;;;;31.31;41.43848;944.2545;;;;
2020/09/09 10:37:56;;;;;;;1;0.5;;;;;;;31.06;41.67871;944.1622;;;;
2020/09/09 10:40:21;;;;;;;0.4;0.3;;;;;;;31.44;41.25879;944.0614;;;;
2020/09/09 10:42:46;;;;;;;0.3;0.3;;;;;;;31.87;40.56836;944.0377;;;;
2020/09/09 10:45:11;;;;;;;0.7;0.5;;;;;;;32.18;40.35449;944.0339;;;;
2020/09/09 10:47:37;;;;;;;0.4;0.4;;;;;;;32.76;38.97852;943.9551;;;;
2020/09/09 10:50:02;;;;;;;0.9;0.4;;;;;;;33.39;38.11816;943.9428;;;;
2020/09/09 10:52:30;;;;;;;0.5;0.3;;;;;;;33.78;37.15234;943.9288;;;;
2020/09/09 10:54:55;;;;;;;0.9;0.5;;;;;;;34.04;36.24707;943.9137;;;;
2020/09/09 10:57:21;;;;;;;0.5;0.4;;;;;;;33.91;36.41699;943.8857;;;;
2020/09/09 10:59:47;;;;;;;0.7;0.7;;;;;;;33.93;36.53906;943.829;;;;
2020/09/09 11:02:14;;;;;;;1.3;0.6;;;;;;;33.51;38.56152;943.8524;;;;
2020/09/09 11:04:39;;;;;;;1.1;0.7;;;;;;;33.47;38.0293;943.8332;;;;
2020/09/09 11:07:07;;;;;;;0.5;0.5;;;;;;;33.57;37.12305;943.7791;;;;
2020/09/09 11:09:32;;;;;;;0.5;0.4;;;;;;;33.37;38.93457;943.7391;;;;
2020/09/09 11:11:57;;;;;;;1.5;0.7;;;;;;;33.21;39.35254;943.6942;;;;
2020/09/09 11:14:23;;;;;;;0.5;0.4;;;;;;;33.23;38.86133;943.6845;;;;
2020/09/09 11:16:48;;;;;;;0.6;0.5;;;;;;;33.3;38.61621;943.6259;;;;
2020/09/09 11:19:17;;;;;;;0.8;0.4;;;;;;;33.38;38.46582;943.5769;;;;
2020/09/09 11:21:41;;;;;;;0.5;0.4;;;;;;;32.95;39.35449;943.4685;;;;
2020/09/09 11:24:11;;;;;;;0.5;0.5;;;;;;;33.1;38.5625;943.5033;;;;
2020/09/09 11:26:36;;;;;;;0.4;0.4;;;;;;;32.74;40.75293;943.4761;;;;
2020/09/09 11:29:01;;;;;;;0.2;0.2;;;;;;;32.4;40.05078;943.4639;;;;
2020/09/09 11:31:28;;;;;;;0.7;0.6;;;;;;;32.28;39.88477;943.4052;;;;
2020/09/09 11:33:53;;;;;;;1.6;0.5;;;;;;;31.92;41.11035;943.3981;;;;
2020/09/09 11:36:18;;;;;;;0.7;0.4;;;;;;;31.41;42.36816;943.3205;;;;
2020/09/09 11:38:46;;;;;;;0.3;0.3;;;;;;;31.05;42.95703;943.3539;;;;
2020/09/09 11:41:11;;;;;;;0.6;0.5;;;;;;;30.94;42.69629;943.3669;;;;
2020/09/09 11:43:39;;;;;;;0.4;0.4;;;;;;;30.65;43.49316;943.3945;;;;
2020/09/09 11:46:04;;;;;;;0.8;0.4;;;;;;;30.62;42.62988;943.3688;;;;
2020/09/09 11:48:30;;;;;;;0.5;0.4;;;;;;;30.28;44.38867;943.3778;;;;
2020/09/09 11:50:58;;;;;;;0.7;0.6;;;;;;;30.15;43.74316;943.368;;;;
2020/09/09 11:53:26;;;;;;;0.8;0.5;;;;;;;29.98;44.49121;943.2473;;;;
2020/09/09 11:55:51;;;;;;;0.3;0.3;;;;;;;30.14;44.80469;943.2751;;;;
2020/09/09 11:58:18;;;;;;;0.4;0.4;;;;;;;30.25;45.44824;943.2481;;;;
2020/09/09 12:00:45;;;;;;;1;0.5;;;;;;;30.06;44.76074;943.1689;;;;
2020/09/09 12:03:13;;;;;;;0.7;0.5;;;;;;;30.04;45.7373;943.1094;;;;
2020/09/09 12:05:38;;;;;;;0.8;0.5;;;;;;;29.97;46.0166;943.1365;;;;
2020/09/09 12:08:03;;;;;;;0.7;0.5;;;;;;;29.96;47.05469;943.1263;;;;
2020/09/09 12:10:38;;;;;;;0.6;0.5;;;;;;;29.73;47.29102;943.0765;;;;
2020/09/09 12:13:08;;;;;;;2.1;0.8;;;;;;;29.84;46.24219;943.0441;;;;
2020/09/09 12:15:33;;;;;;;0.5;0.4;;;;;;;29.94;46.34766;943.029;;;;
2020/09/09 12:17:58;;;;;;;1;0.5;;;;;;;29.98;45.60059;943.0421;;;;
2020/09/09 12:20:23;;;;;;;0.8;0.6;;;;;;;30.07;44.78516;942.9492;;;;
2020/09/09 12:22:48;;;;;;;0.5;0.5;;;;;;;30.22;47.02051;942.8934;;;;
2020/09/09 12:25:13;;;;;;;0.7;0.6;;;;;;;30.14;45.67676;942.9192;;;;
2020/09/09 12:27:38;;;;;;;0.5;0.4;;;;;;;30.07;44.72656;942.8873;;;;
2020/09/09 12:30:03;;;;;;;0.9;0.6;;;;;;;30.04;43.85254;942.8948;;;;
2020/09/09 12:32:29;;;;;;;0.5;0.4;;;;;;;30.02;45.25781;942.8904;;;;
2020/09/09 12:34:54;;;;;;;0.4;0.4;;;;;;;30.18;45.17773;942.8652;;;;
2020/09/09 12:37:24;;;;;;;0.5;0.5;;;;;;;30.23;45.53027;942.7781;;;;
2020/09/09 12:39:49;;;;;;;1.4;0.6;;;;;;;30.08;45.44336;942.7813;;;;
2020/09/09 12:42:15;;;;;;;1.9;0.7;;;;;;;29.92;45.42676;942.7697;;;;
2020/09/09 12:44:40;;;;;;;0.9;0.6;;;;;;;29.76;46.91406;942.6515;;;;
2020/09/09 12:47:05;;;;;;;0.8;0.5;;;;;;;29.53;46.55566;942.6998;;;;
2020/09/09 12:49:34;;;;;;;3;0.8;;;;;;;29.31;48.14258;942.6264;;;;
2020/09/09 12:52:03;;;;;;;0.8;0.7;;;;;;;29.23;46.57227;942.6373;;;;
2020/09/09 12:54:28;;;;;;;0.6;0.4;;;;;;;29.05;47.60254;942.5947;;;;
2020/09/09 12:56:53;;;;;;;0.6;0.4;;;;;;;29.07;48.64063;942.5494;;;;
2020/09/09 12:59:20;;;;;;;1.5;0.5;;;;;;;29.2;48.79785;942.5274;;;;
2020/09/09 13:01:45;;;;;;;0.8;0.4;;;;;;;29.17;48.45996;942.5761;;;;
2020/09/09 13:04:11;;;;;;;0.7;0.4;;;;;;;29.16;47.81641;942.5237;;;;
2020/09/09 13:06:36;;;;;;;1.1;0.6;;;;;;;29.28;46.93555;942.5217;;;;
2020/09/09 13:09:01;;;;;;;0.7;0.6;;;;;;;29.27;46.00488;942.4646;;;;
2020/09/09 13:11:26;;;;;;;0.8;0.6;;;;;;;29.29;47.27051;942.4568;;;;
2020/09/09 13:13:52;;;;;;;0.7;0.4;;;;;;;28.86;49.37891;942.3746;;;;
2020/09/09 13:16:17;;;;;;;1.5;0.6;;;;;;;28.78;48.69141;942.3869;;;;
2020/09/09 13:18:42;;;;;;;1.1;0.8;;;;;;;28.68;49.15625;942.3735;;;;
2020/09/09 13:21:07;;;;;;;0.5;0.5;;;;;;;28.76;49.60547;942.3052;;;;
2020/09/09 13:23:34;;;;;;;0.8;0.5;;;;;;;28.7;48.69434;942.3668;;;;
2020/09/09 13:25:59;;;;;;;0.7;0.5;;;;;;;28.7;48.31348;942.3383;;;;
2020/09/09 13:28:24;;;;;;;0.4;0.4;;;;;;;28.62;48.10352;942.3245;;;;
2020/09/09 13:30:49;;;;;;;1.2;0.4;;;;;;;28.61;48.61426;942.3138;;;;
2020/09/09 13:33:15;;;;;;;0.8;0.6;;;;;;;28.54;48.91602;942.3519;;;;
2020/09/09 13:35:40;;;;;;;1;0.7;;;;;;;28.53;48.15234;942.2897;;;;
2020/09/09 13:38:06;;;;;;;0.5;0.4;;;;;;;28.46;49.01367;942.25;;;;
2020/09/09 13:40:45;;;;;;;1.1;0.7;;;;;;;28.52;49.38867;942.3231;;;;
2020/09/09 13:43:12;;;;;;;0.9;0.5;;;;;;;28.48;49.59961;942.3395;;;;
2020/09/09 13:45:37;;;;;;;1.2;0.4;;;;;;;28.43;47.63184;942.2471;;;;
2020/09/09 13:48:04;;;;;;;0.4;0.4;;;;;;;28.45;48.16895;942.2456;;;;
2020/09/09 13:50:32;;;;;;;0.9;0.6;;;;;;;28.56;48.77441;942.2625;;;;
2020/09/09 13:52:57;;;;;;;0.9;0.6;;;;;;;28.38;49.48145;942.2292;;;;
2020/09/09 13:55:23;;;;;;;1.6;0.9;;;;;;;28.19;48.5918;942.1577;;;;
2020/09/09 13:57:51;;;;;;;0.6;0.6;;;;;;;28.19;49.16211;942.1806;;;;
2020/09/09 14:00:23;;;;;;;1.5;0.5;;;;;;;28.23;50.42773;942.2122;;;;
2020/09/09 14:02:48;;;;;;;0.6;0.5;;;;;;;28.27;49.45703;942.1474;;;;
2020/09/09 14:05:13;;;;;;;0.7;0.6;;;;;;;28.31;49.5332;942.1469;;;;
2020/09/09 14:07:38;;;;;;;0.5;0.4;;;;;;;28.32;49.27246;942.1562;;;;
2020/09/09 14:10:06;;;;;;;0.8;0.6;;;;;;;28.17;49.58789;942.0941;;;;
2020/09/09 14:12:31;;;;;;;0.3;0.3;;;;;;;28.19;48.63965;942.0062;;;;
2020/09/09 14:14:56;;;;;;;1.1;0.6;;;;;;;28.06;49.69531;942.0117;;;;
2020/09/09 14:17:21;;;;;;;1.2;0.7;;;;;;;27.94;49.4082;941.9709;;;;
2020/09/09 14:19:48;;;;;;;0.5;0.5;;;;;;;27.99;50.05566;941.9565;;;;
2020/09/09 14:22:12;;;;;;;0.5;0.4;;;;;;;28;50.37695;941.8947;;;;
2020/09/09 14:24:37;;;;;;;0.9;0.5;;;;;;;27.96;50.90723;941.9761;;;;
2020/09/09 14:27:04;;;;;;;0.7;0.5;;;;;;;27.73;52.16309;941.8865;;;;
2020/09/09 14:29:29;;;;;;;1.2;1;;;;;;;27.64;51.82031;941.937;;;;
2020/09/09 14:31:54;;;;;;;0.9;0.4;;;;;;;27.64;51.53516;941.8968;;;;
2020/09/09 14:34:19;;;;;;;1.2;0.8;;;;;;;27.72;51.7002;941.9545;;;;
2020/09/09 14:36:44;;;;;;;0.9;0.7;;;;;;;27.64;51.39355;941.8984;;;;
2020/09/09 14:39:09;;;;;;;0.4;0.3;;;;;;;27.48;52.07422;941.8937;;;;
2020/09/09 14:41:35;;;;;;;1.6;0.8;;;;;;;27.34;52.62891;941.9091;;;;
2020/09/09 14:44:03;;;;;;;3.2;1.1;;;;;;;27.21;52.71875;941.8323;;;;
2020/09/09 14:46:28;;;;;;;0.8;0.5;;;;;;;27.04;53.02051;941.816;;;;
2020/09/09 14:48:56;;;;;;;1.7;0.6;;;;;;;26.9;53.49023;941.84;;;;
2020/09/09 14:51:21;;;;;;;0.9;0.6;;;;;;;26.82;54.52246;941.8035;;;;
2020/09/09 14:53:46;;;;;;;0.5;0.4;;;;;;;26.91;53.91797;941.7928;;;;
2020/09/09 14:56:11;;;;;;;2.8;1.1;;;;;;;26.84;53.80078;941.8292;;;;
2020/09/09 14:58:39;;;;;;;2.7;0.7;;;;;;;26.85;53.22266;941.8336;;;;
2020/09/09 15:01:04;;;;;;;0.9;0.7;;;;;;;26.92;53.51465;941.8253;;;;
2020/09/09 15:03:29;;;;;;;3.4;1;;;;;;;26.99;52.91895;941.7701;;;;
2020/09/09 15:05:57;;;;;;;2.2;0.6;;;;;;;26.92;53.19531;941.7662;;;;
2020/09/09 15:08:22;;;;;;;2;0.8;;;;;;;26.95;54.58594;941.7673;;;;
2020/09/09 15:10:49;;;;;;;2.9;0.7;;;;;;;26.77;53.50879;941.783;;;;
2020/09/09 15:13:14;;;;;;;5.1;1.7;;;;;;;26.77;54.20898;941.8;;;;
2020/09/09 15:15:39;;;;;;;0.7;0.5;;;;;;;26.77;53.97168;941.7946;;;;
2020/09/09 15:18:04;;;;;;;0.8;0.5;;;;;;;26.3;55.05078;941.8053;;;;
2020/09/09 15:20:29;;;;;;;0.6;0.5;;;;;;;26.4;55.54883;941.8107;;;;
2020/09/09 15:22:54;;;;;;;0.9;0.7;;;;;;;26.5;55.5957;941.7736;;;;